sensor_id;sensor_type;location;lat;lon;timestamp;temperature;humidity
62809;DHT22;48848;39.002;-94.584;2023-01-08T00:01:27;21.60;34.50
62809;DHT22;48848;39.002;-94.584;2023-01-08T00:03:53;22.50;32.90
62809;DHT22;48848;39.002;-94.584;2023-01-08T00:06:19;22.20;32.50
62809;DHT22;48848;39.002;-94.584;2023-01-08T00:08:49;21.40;34.20
62809;DHT22;48848;39.002;-94.584;2023-01-08T00:11:15;20.90;35.90
62809;DHT22;48848;39.002;-94.584;2023-01-08T00:13:42;20.50;37.40
62809;DHT22;48848;39.002;-94.584;2023-01-08T00:16:09;20.40;37.80
62809;DHT22;48848;39.002;-94.584;2023-01-08T00:18:35;20.30;37.90
62809;DHT22;48848;39.002;-94.584;2023-01-08T00:21:01;20.10;38.60
62809;DHT22;48848;39.002;-94.584;2023-01-08T00:23:27;20.10;38.40
62809;DHT22;48848;39.002;-94.584;2023-01-08T00:25:53;20.10;38.40
62809;DHT22;48848;39.002;-94.584;2023-01-08T00:28:18;19.80;38.50
62809;DHT22;48848;39.002;-94.584;2023-01-08T00:30:47;19.80;38.40
62809;DHT22;48848;39.002;-94.584;2023-01-08T00:33:13;19.70;39.10
62809;DHT22;48848;39.002;-94.584;2023-01-08T00:35:39;19.70;39.00
62809;DHT22;48848;39.002;-94.584;2023-01-08T00:38:05;20.20;35.90
62809;DHT22;48848;39.002;-94.584;2023-01-08T00:40:32;21.30;34.20
62809;DHT22;48848;39.002;-94.584;2023-01-08T00:42:58;22.40;32.00
62809;DHT22;48848;39.002;-94.584;2023-01-08T00:45:24;22.70;31.20
62809;DHT22;48848;39.002;-94.584;2023-01-08T00:47:49;21.60;32.00
62809;DHT22;48848;39.002;-94.584;2023-01-08T00:50:15;20.80;33.30
62809;DHT22;48848;39.002;-94.584;2023-01-08T00:52:41;20.40;34.30
62809;DHT22;48848;39.002;-94.584;2023-01-08T00:55:07;20.10;34.80
62809;DHT22;48848;39.002;-94.584;2023-01-08T00:57:34;20.00;35.40
62809;DHT22;48848;39.002;-94.584;2023-01-08T01:00:00;20.00;36.00
62809;DHT22;48848;39.002;-94.584;2023-01-08T01:02:26;19.80;35.90
62809;DHT22;48848;39.002;-94.584;2023-01-08T01:04:52;19.70;36.10
62809;DHT22;48848;39.002;-94.584;2023-01-08T01:07:18;19.60;34.40
62809;DHT22;48848;39.002;-94.584;2023-01-08T01:09:44;20.60;34.20
62809;DHT22;48848;39.002;-94.584;2023-01-08T01:12:10;21.80;32.20
62809;DHT22;48848;39.002;-94.584;2023-01-08T01:14:36;22.90;30.50
62809;DHT22;48848;39.002;-94.584;2023-01-08T01:17:02;23.40;30.20
62809;DHT22;48848;39.002;-94.584;2023-01-08T01:19:28;22.00;30.00
62809;DHT22;48848;39.002;-94.584;2023-01-08T01:21:54;21.00;31.40
62809;DHT22;48848;39.002;-94.584;2023-01-08T01:24:19;20.50;32.50
62809;DHT22;48848;39.002;-94.584;2023-01-08T01:26:48;20.30;33.30
62809;DHT22;48848;39.002;-94.584;2023-01-08T01:29:14;20.10;33.80
62809;DHT22;48848;39.002;-94.584;2023-01-08T01:31:39;19.90;33.90
62809;DHT22;48848;39.002;-94.584;2023-01-08T01:34:05;19.80;34.30
62809;DHT22;48848;39.002;-94.584;2023-01-08T01:36:31;19.90;33.30
62809;DHT22;48848;39.002;-94.584;2023-01-08T01:38:57;20.90;32.80
62809;DHT22;48848;39.002;-94.584;2023-01-08T01:43:53;23.20;29.70
62809;DHT22;48848;39.002;-94.584;2023-01-08T01:48:46;21.80;29.90
62809;DHT22;48848;39.002;-94.584;2023-01-08T01:51:12;21.00;31.30
62809;DHT22;48848;39.002;-94.584;2023-01-08T01:53:38;20.60;32.00
62809;DHT22;48848;39.002;-94.584;2023-01-08T01:56:06;20.30;32.80
62809;DHT22;48848;39.002;-94.584;2023-01-08T01:58:32;20.20;33.20
62809;DHT22;48848;39.002;-94.584;2023-01-08T02:01:00;20.00;33.50
62809;DHT22;48848;39.002;-94.584;2023-01-08T02:03:31;19.90;33.80
62809;DHT22;48848;39.002;-94.584;2023-01-08T02:11:12;21.90;31.60
62809;DHT22;48848;39.002;-94.584;2023-01-08T02:13:40;23.20;29.70
62809;DHT22;48848;39.002;-94.584;2023-01-08T02:16:20;22.80;29.50
62809;DHT22;48848;39.002;-94.584;2023-01-08T02:18:50;21.20;30.80
62809;DHT22;48848;39.002;-94.584;2023-01-08T02:21:20;19.90;32.90
62809;DHT22;48848;39.002;-94.584;2023-01-08T02:23:52;19.30;34.20
62809;DHT22;48848;39.002;-94.584;2023-01-08T02:31:18;18.50;36.10
62809;DHT22;48848;39.002;-94.584;2023-01-08T02:33:44;18.40;36.20
62809;DHT22;48848;39.002;-94.584;2023-01-08T02:36:25;18.40;36.10
62809;DHT22;48848;39.002;-94.584;2023-01-08T02:41:23;21.10;33.30
62809;DHT22;48848;39.002;-94.584;2023-01-08T02:43:50;22.30;30.70
62809;DHT22;48848;39.002;-94.584;2023-01-08T02:46:18;20.90;30.50
62809;DHT22;48848;39.002;-94.584;2023-01-08T02:48:48;19.60;33.00
62809;DHT22;48848;39.002;-94.584;2023-01-08T02:53:43;18.40;35.50
62809;DHT22;48848;39.002;-94.584;2023-01-08T02:56:14;18.10;36.00
62809;DHT22;48848;39.002;-94.584;2023-01-08T02:58:41;18.00;36.50
62809;DHT22;48848;39.002;-94.584;2023-01-08T03:01:08;17.80;36.90
62809;DHT22;48848;39.002;-94.584;2023-01-08T03:03:35;17.70;36.70
62809;DHT22;48848;39.002;-94.584;2023-01-08T03:06:12;18.30;36.60
62809;DHT22;48848;39.002;-94.584;2023-01-08T03:08:39;20.00;34.40
62809;DHT22;48848;39.002;-94.584;2023-01-08T03:11:07;21.70;32.20
62809;DHT22;48848;39.002;-94.584;2023-01-08T03:13:38;21.70;30.00
62809;DHT22;48848;39.002;-94.584;2023-01-08T03:16:10;20.10;31.60
62809;DHT22;48848;39.002;-94.584;2023-01-08T03:18:38;19.10;33.80
62809;DHT22;48848;39.002;-94.584;2023-01-08T03:21:07;18.50;35.20
62809;DHT22;48848;39.002;-94.584;2023-01-08T03:23:34;18.20;35.80
62809;DHT22;48848;39.002;-94.584;2023-01-08T03:26:01;17.90;36.40
62809;DHT22;48848;39.002;-94.584;2023-01-08T03:28:29;17.70;36.80
62809;DHT22;48848;39.002;-94.584;2023-01-08T03:30:58;17.60;37.10
62809;DHT22;48848;39.002;-94.584;2023-01-08T03:33:24;17.70;38.20
62809;DHT22;48848;39.002;-94.584;2023-01-08T03:35:52;18.00;37.30
62809;DHT22;48848;39.002;-94.584;2023-01-08T03:40:46;21.50;31.90
62809;DHT22;48848;39.002;-94.584;2023-01-08T03:43:12;21.60;30.00
62809;DHT22;48848;39.002;-94.584;2023-01-08T03:45:40;19.80;31.90
62809;DHT22;48848;39.002;-94.584;2023-01-08T03:48:08;18.90;33.70
62809;DHT22;48848;39.002;-94.584;2023-01-08T03:50:35;18.30;35.20
62809;DHT22;48848;39.002;-94.584;2023-01-08T03:53:01;17.90;36.10
62809;DHT22;48848;39.002;-94.584;2023-01-08T03:55:27;17.80;36.60
62809;DHT22;48848;39.002;-94.584;2023-01-08T03:57:53;17.70;37.10
62809;DHT22;48848;39.002;-94.584;2023-01-08T04:00:18;17.50;37.30
62809;DHT22;48848;39.002;-94.584;2023-01-08T04:02:45;17.60;37.10
62809;DHT22;48848;39.002;-94.584;2023-01-08T04:05:10;18.50;36.50
62809;DHT22;48848;39.002;-94.584;2023-01-08T04:07:36;20.60;33.80
62809;DHT22;48848;39.002;-94.584;2023-01-08T04:10:02;22.20;30.90
62809;DHT22;48848;39.002;-94.584;2023-01-08T04:12:28;21.10;29.90
62809;DHT22;48848;39.002;-94.584;2023-01-08T04:14:54;19.50;32.00
62809;DHT22;48848;39.002;-94.584;2023-01-08T04:17:20;18.70;33.90
62809;DHT22;48848;39.002;-94.584;2023-01-08T04:19:46;18.20;35.10
62809;DHT22;48848;39.002;-94.584;2023-01-08T04:22:12;17.90;36.00
62809;DHT22;48848;39.002;-94.584;2023-01-08T04:24:38;17.70;36.40
62809;DHT22;48848;39.002;-94.584;2023-01-08T04:27:04;17.50;36.90
62809;DHT22;48848;39.002;-94.584;2023-01-08T04:29:29;17.40;37.00
62809;DHT22;48848;39.002;-94.584;2023-01-08T04:31:55;17.60;37.10
62809;DHT22;48848;39.002;-94.584;2023-01-08T04:34:21;18.30;35.90
62809;DHT22;48848;39.002;-94.584;2023-01-08T04:36:47;18.30;34.30
62809;DHT22;48848;39.002;-94.584;2023-01-08T04:39:13;18.00;35.10
62809;DHT22;48848;39.002;-94.584;2023-01-08T04:41:39;17.70;35.70
62809;DHT22;48848;39.002;-94.584;2023-01-08T04:44:04;17.50;36.40
62809;DHT22;48848;39.002;-94.584;2023-01-08T04:46:31;17.40;36.90
62809;DHT22;48848;39.002;-94.584;2023-01-08T04:48:56;17.30;37.30
62809;DHT22;48848;39.002;-94.584;2023-01-08T04:51:22;17.20;37.50
62809;DHT22;48848;39.002;-94.584;2023-01-08T04:53:50;17.20;37.90
62809;DHT22;48848;39.002;-94.584;2023-01-08T04:56:16;17.10;37.50
62809;DHT22;48848;39.002;-94.584;2023-01-08T04:58:42;17.00;37.60
62809;DHT22;48848;39.002;-94.584;2023-01-08T05:01:08;17.00;37.60
62809;DHT22;48848;39.002;-94.584;2023-01-08T05:03:34;16.90;37.70
62809;DHT22;48848;39.002;-94.584;2023-01-08T05:06:00;16.80;37.70
62809;DHT22;48848;39.002;-94.584;2023-01-08T05:08:26;16.70;37.70
62809;DHT22;48848;39.002;-94.584;2023-01-08T05:10:52;16.70;37.60
62809;DHT22;48848;39.002;-94.584;2023-01-08T05:13:17;16.60;37.80
62809;DHT22;48848;39.002;-94.584;2023-01-08T05:15:43;16.60;38.00
62809;DHT22;48848;39.002;-94.584;2023-01-08T05:18:09;16.50;38.00
62809;DHT22;48848;39.002;-94.584;2023-01-08T05:20:35;16.50;38.10
62809;DHT22;48848;39.002;-94.584;2023-01-08T05:23:01;16.40;38.00
62809;DHT22;48848;39.002;-94.584;2023-01-08T05:25:27;16.40;38.20
62809;DHT22;48848;39.002;-94.584;2023-01-08T05:27:52;16.30;38.40
62809;DHT22;48848;39.002;-94.584;2023-01-08T05:30:18;16.30;38.30
62809;DHT22;48848;39.002;-94.584;2023-01-08T05:32:44;16.20;38.30
62809;DHT22;48848;39.002;-94.584;2023-01-08T05:35:10;16.20;38.40
62809;DHT22;48848;39.002;-94.584;2023-01-08T05:37:36;16.20;38.40
62809;DHT22;48848;39.002;-94.584;2023-01-08T05:40:02;16.20;38.50
62809;DHT22;48848;39.002;-94.584;2023-01-08T05:42:29;16.10;38.30
62809;DHT22;48848;39.002;-94.584;2023-01-08T05:44:54;16.10;38.40
62809;DHT22;48848;39.002;-94.584;2023-01-08T05:47:20;16.00;38.60
62809;DHT22;48848;39.002;-94.584;2023-01-08T05:49:46;16.00;38.60
62809;DHT22;48848;39.002;-94.584;2023-01-08T05:52:12;15.90;38.70
62809;DHT22;48848;39.002;-94.584;2023-01-08T05:54:38;15.90;38.90
62809;DHT22;48848;39.002;-94.584;2023-01-08T05:57:04;15.80;38.70
62809;DHT22;48848;39.002;-94.584;2023-01-08T05:59:29;15.80;38.80
62809;DHT22;48848;39.002;-94.584;2023-01-08T06:01:55;15.80;38.80
62809;DHT22;48848;39.002;-94.584;2023-01-08T06:04:22;15.70;38.70
62809;DHT22;48848;39.002;-94.584;2023-01-08T06:06:48;15.70;38.90
62809;DHT22;48848;39.002;-94.584;2023-01-08T06:09:14;15.60;38.90
62809;DHT22;48848;39.002;-94.584;2023-01-08T06:11:39;15.60;38.80
62809;DHT22;48848;39.002;-94.584;2023-01-08T06:14:05;15.60;38.90
62809;DHT22;48848;39.002;-94.584;2023-01-08T06:16:31;15.60;39.00
62809;DHT22;48848;39.002;-94.584;2023-01-08T06:18:57;15.50;39.00
62809;DHT22;48848;39.002;-94.584;2023-01-08T06:21:23;15.50;39.20
62809;DHT22;48848;39.002;-94.584;2023-01-08T06:23:49;15.40;39.10
62809;DHT22;48848;39.002;-94.584;2023-01-08T06:26:14;15.40;39.10
62809;DHT22;48848;39.002;-94.584;2023-01-08T06:28:40;15.40;39.20
62809;DHT22;48848;39.002;-94.584;2023-01-08T06:31:06;15.30;39.10
62809;DHT22;48848;39.002;-94.584;2023-01-08T06:33:32;15.30;39.10
62809;DHT22;48848;39.002;-94.584;2023-01-08T06:35:58;15.30;39.10
62809;DHT22;48848;39.002;-94.584;2023-01-08T06:38:24;15.30;39.20
62809;DHT22;48848;39.002;-94.584;2023-01-08T06:40:50;15.20;39.20
62809;DHT22;48848;39.002;-94.584;2023-01-08T06:43:16;15.20;39.30
62809;DHT22;48848;39.002;-94.584;2023-01-08T06:45:42;15.10;39.30
62809;DHT22;48848;39.002;-94.584;2023-01-08T06:48:08;15.10;39.50
62809;DHT22;48848;39.002;-94.584;2023-01-08T06:50:34;15.00;39.40
62809;DHT22;48848;39.002;-94.584;2023-01-08T06:52:59;15.00;39.50
62809;DHT22;48848;39.002;-94.584;2023-01-08T06:55:25;15.00;39.50
62809;DHT22;48848;39.002;-94.584;2023-01-08T06:57:55;15.00;39.50
62809;DHT22;48848;39.002;-94.584;2023-01-08T07:00:21;15.00;39.40
62809;DHT22;48848;39.002;-94.584;2023-01-08T07:02:49;14.90;39.30
62809;DHT22;48848;39.002;-94.584;2023-01-08T07:05:15;14.90;39.50
62809;DHT22;48848;39.002;-94.584;2023-01-08T07:07:41;14.90;39.40
62809;DHT22;48848;39.002;-94.584;2023-01-08T07:10:06;14.90;39.50
62809;DHT22;48848;39.002;-94.584;2023-01-08T07:12:33;14.80;39.50
62809;DHT22;48848;39.002;-94.584;2023-01-08T07:15:00;14.80;39.50
62809;DHT22;48848;39.002;-94.584;2023-01-08T07:17:26;14.80;39.70
62809;DHT22;48848;39.002;-94.584;2023-01-08T07:19:52;14.70;39.70
62809;DHT22;48848;39.002;-94.584;2023-01-08T07:22:18;14.70;39.50
62809;DHT22;48848;39.002;-94.584;2023-01-08T07:24:45;14.70;39.50
62809;DHT22;48848;39.002;-94.584;2023-01-08T07:27:11;14.70;39.50
62809;DHT22;48848;39.002;-94.584;2023-01-08T07:29:37;14.60;39.50
62809;DHT22;48848;39.002;-94.584;2023-01-08T07:32:03;14.60;39.40
62809;DHT22;48848;39.002;-94.584;2023-01-08T07:34:28;14.60;39.50
62809;DHT22;48848;39.002;-94.584;2023-01-08T07:36:54;14.60;39.50
62809;DHT22;48848;39.002;-94.584;2023-01-08T07:39:20;14.60;39.60
62809;DHT22;48848;39.002;-94.584;2023-01-08T07:41:46;14.50;39.60
62809;DHT22;48848;39.002;-94.584;2023-01-08T07:44:12;14.50;39.40
62809;DHT22;48848;39.002;-94.584;2023-01-08T07:46:38;14.50;39.40
62809;DHT22;48848;39.002;-94.584;2023-01-08T07:49:04;14.50;39.40
62809;DHT22;48848;39.002;-94.584;2023-01-08T07:51:30;14.40;39.50
62809;DHT22;48848;39.002;-94.584;2023-01-08T07:53:56;14.40;39.60
62809;DHT22;48848;39.002;-94.584;2023-01-08T07:56:22;14.40;39.60
62809;DHT22;48848;39.002;-94.584;2023-01-08T07:58:49;14.40;39.70
62809;DHT22;48848;39.002;-94.584;2023-01-08T08:01:15;14.30;39.80
62809;DHT22;48848;39.002;-94.584;2023-01-08T08:03:41;14.30;39.80
62809;DHT22;48848;39.002;-94.584;2023-01-08T08:06:07;14.30;39.70
62809;DHT22;48848;39.002;-94.584;2023-01-08T08:08:33;14.30;40.20
62809;DHT22;48848;39.002;-94.584;2023-01-08T08:10:59;14.70;39.90
62809;DHT22;48848;39.002;-94.584;2023-01-08T08:13:25;15.40;39.00
62809;DHT22;48848;39.002;-94.584;2023-01-08T08:15:51;16.20;37.40
62809;DHT22;48848;39.002;-94.584;2023-01-08T08:18:17;16.10;35.80
62809;DHT22;48848;39.002;-94.584;2023-01-08T08:20:43;15.70;37.60
62809;DHT22;48848;39.002;-94.584;2023-01-08T08:23:10;15.40;37.60
62809;DHT22;48848;39.002;-94.584;2023-01-08T08:25:38;15.20;38.00
62809;DHT22;48848;39.002;-94.584;2023-01-08T08:28:05;15.00;38.30
62809;DHT22;48848;39.002;-94.584;2023-01-08T08:30:31;14.90;38.50
62809;DHT22;48848;39.002;-94.584;2023-01-08T08:32:58;14.80;38.70
62809;DHT22;48848;39.002;-94.584;2023-01-08T08:35:25;14.70;38.80
62809;DHT22;48848;39.002;-94.584;2023-01-08T08:37:52;14.70;39.00
62809;DHT22;48848;39.002;-94.584;2023-01-08T08:40:18;14.60;39.30
62809;DHT22;48848;39.002;-94.584;2023-01-08T08:42:44;14.60;39.40
62809;DHT22;48848;39.002;-94.584;2023-01-08T08:45:10;14.50;39.60
62809;DHT22;48848;39.002;-94.584;2023-01-08T08:47:36;14.40;39.50
62809;DHT22;48848;39.002;-94.584;2023-01-08T08:50:02;14.40;39.40
62809;DHT22;48848;39.002;-94.584;2023-01-08T08:52:29;14.60;39.80
62809;DHT22;48848;39.002;-94.584;2023-01-08T08:54:55;15.20;39.30
62809;DHT22;48848;39.002;-94.584;2023-01-08T08:57:24;16.60;37.30
62809;DHT22;48848;39.002;-94.584;2023-01-08T08:59:50;16.80;34.60
62809;DHT22;48848;39.002;-94.584;2023-01-08T09:02:15;16.10;35.60
62809;DHT22;48848;39.002;-94.584;2023-01-08T09:04:41;15.60;36.80
62809;DHT22;48848;39.002;-94.584;2023-01-08T09:07:07;15.30;37.60
62809;DHT22;48848;39.002;-94.584;2023-01-08T09:09:33;15.10;37.90
62809;DHT22;48848;39.002;-94.584;2023-01-08T09:11:59;15.00;38.30
62809;DHT22;48848;39.002;-94.584;2023-01-08T09:14:25;14.80;38.40
62809;DHT22;48848;39.002;-94.584;2023-01-08T09:16:51;14.80;38.70
62809;DHT22;48848;39.002;-94.584;2023-01-08T09:19:17;14.70;38.80
62809;DHT22;48848;39.002;-94.584;2023-01-08T09:21:43;14.60;39.00
62809;DHT22;48848;39.002;-94.584;2023-01-08T09:24:09;14.60;39.10
62809;DHT22;48848;39.002;-94.584;2023-01-08T09:26:35;14.50;39.20
62809;DHT22;48848;39.002;-94.584;2023-01-08T09:29:00;14.40;39.40
62809;DHT22;48848;39.002;-94.584;2023-01-08T09:31:26;14.50;39.70
62809;DHT22;48848;39.002;-94.584;2023-01-08T09:33:52;15.10;38.90
62809;DHT22;48848;39.002;-94.584;2023-01-08T09:36:18;15.90;37.80
62809;DHT22;48848;39.002;-94.584;2023-01-08T09:38:44;16.60;35.30
62809;DHT22;48848;39.002;-94.584;2023-01-08T09:41:15;16.10;35.40
62809;DHT22;48848;39.002;-94.584;2023-01-08T09:43:44;15.70;36.30
62809;DHT22;48848;39.002;-94.584;2023-01-08T09:46:10;15.30;37.40
62809;DHT22;48848;39.002;-94.584;2023-01-08T09:48:38;15.10;37.90
62809;DHT22;48848;39.002;-94.584;2023-01-08T09:51:22;14.90;38.40
62809;DHT22;48848;39.002;-94.584;2023-01-08T09:53:55;14.80;38.50
62809;DHT22;48848;39.002;-94.584;2023-01-08T09:56:22;14.70;38.60
62809;DHT22;48848;39.002;-94.584;2023-01-08T10:01:28;14.60;38.90
62809;DHT22;48848;39.002;-94.584;2023-01-08T10:04:13;14.50;38.90
62809;DHT22;48848;39.002;-94.584;2023-01-08T10:06:40;14.50;39.30
62809;DHT22;48848;39.002;-94.584;2023-01-08T10:09:10;14.40;39.40
62809;DHT22;48848;39.002;-94.584;2023-01-08T10:11:38;14.90;39.20
62809;DHT22;48848;39.002;-94.584;2023-01-08T10:14:05;15.70;38.00
62809;DHT22;48848;39.002;-94.584;2023-01-08T10:16:38;16.80;36.60
62809;DHT22;48848;39.002;-94.584;2023-01-08T10:19:06;16.40;34.80
62809;DHT22;48848;39.002;-94.584;2023-01-08T10:21:37;15.90;35.80
62809;DHT22;48848;39.002;-94.584;2023-01-08T10:24:04;15.50;36.70
62809;DHT22;48848;39.002;-94.584;2023-01-08T10:26:33;15.20;37.50
62809;DHT22;48848;39.002;-94.584;2023-01-08T10:32:03;14.80;38.30
62809;DHT22;48848;39.002;-94.584;2023-01-08T10:36:50;14.60;38.60
62809;DHT22;48848;39.002;-94.584;2023-01-08T10:39:20;14.50;38.70
62809;DHT22;48848;39.002;-94.584;2023-01-08T10:41:47;14.50;38.90
62809;DHT22;48848;39.002;-94.584;2023-01-08T10:44:15;14.50;39.10
62809;DHT22;48848;39.002;-94.584;2023-01-08T10:46:42;14.60;39.70
62809;DHT22;48848;39.002;-94.584;2023-01-08T10:49:18;15.10;38.80
62809;DHT22;48848;39.002;-94.584;2023-01-08T10:51:49;15.90;37.20
62809;DHT22;48848;39.002;-94.584;2023-01-08T10:57:00;15.90;35.60
62809;DHT22;48848;39.002;-94.584;2023-01-08T10:59:26;15.40;37.00
62809;DHT22;48848;39.002;-94.584;2023-01-08T11:01:53;15.10;37.50
62809;DHT22;48848;39.002;-94.584;2023-01-08T11:04:30;15.00;38.00
62809;DHT22;48848;39.002;-94.584;2023-01-08T11:07:03;14.80;38.50
62809;DHT22;48848;39.002;-94.584;2023-01-08T11:09:31;14.70;38.80
62809;DHT22;48848;39.002;-94.584;2023-01-08T11:11:57;14.60;38.80
62809;DHT22;48848;39.002;-94.584;2023-01-08T11:14:31;14.60;39.00
62809;DHT22;48848;39.002;-94.584;2023-01-08T11:17:07;14.50;38.90
62809;DHT22;48848;39.002;-94.584;2023-01-08T11:19:34;14.40;39.00
62809;DHT22;48848;39.002;-94.584;2023-01-08T11:22:04;14.60;39.60
62809;DHT22;48848;39.002;-94.584;2023-01-08T11:24:34;15.20;38.80
62809;DHT22;48848;39.002;-94.584;2023-01-08T11:27:05;16.30;37.30
62809;DHT22;48848;39.002;-94.584;2023-01-08T11:29:53;17.10;34.30
62809;DHT22;48848;39.002;-94.584;2023-01-08T11:35:12;15.60;36.40
62809;DHT22;48848;39.002;-94.584;2023-01-08T11:37:37;15.20;37.20
62809;DHT22;48848;39.002;-94.584;2023-01-08T11:40:13;15.00;38.00
62809;DHT22;48848;39.002;-94.584;2023-01-08T11:42:53;14.80;38.40
62809;DHT22;48848;39.002;-94.584;2023-01-08T11:45:35;14.90;38.50
62809;DHT22;48848;39.002;-94.584;2023-01-08T11:50:48;16.80;36.50
62809;DHT22;48848;39.002;-94.584;2023-01-08T11:55:58;20.60;31.30
62809;DHT22;48848;39.002;-94.584;2023-01-08T12:11:15;20.40;28.50
62809;DHT22;48848;39.002;-94.584;2023-01-08T12:24:21;18.60;34.80
62809;DHT22;48848;39.002;-94.584;2023-01-08T12:32:32;22.30;28.40
62809;DHT22;48848;39.002;-94.584;2023-01-08T12:42:32;16.60;35.30
62809;DHT22;48848;39.002;-94.584;2023-01-08T12:44:59;16.40;36.10
62809;DHT22;48848;39.002;-94.584;2023-01-08T12:47:27;17.00;36.30
62809;DHT22;48848;39.002;-94.584;2023-01-08T12:52:31;21.20;30.60
62809;DHT22;48848;39.002;-94.584;2023-01-08T12:55:47;22.10;29.20
62809;DHT22;48848;39.002;-94.584;2023-01-08T12:58:30;20.10;29.20
62809;DHT22;48848;39.002;-94.584;2023-01-08T13:00:40;18.20;31.90
62809;DHT22;48848;39.002;-94.584;2023-01-08T13:03:11;17.30;33.80
62809;DHT22;48848;39.002;-94.584;2023-01-08T13:05:39;16.70;35.20
62809;DHT22;48848;39.002;-94.584;2023-01-08T13:08:07;16.40;35.90
62809;DHT22;48848;39.002;-94.584;2023-01-08T13:10:49;16.40;36.60
62809;DHT22;48848;39.002;-94.584;2023-01-08T13:13:29;17.20;36.00
62809;DHT22;48848;39.002;-94.584;2023-01-08T13:18:34;21.40;30.30
62809;DHT22;48848;39.002;-94.584;2023-01-08T13:21:01;20.70;28.80
62809;DHT22;48848;39.002;-94.584;2023-01-08T13:23:32;18.70;30.80
62809;DHT22;48848;39.002;-94.584;2023-01-08T13:26:03;17.60;33.00
62809;DHT22;48848;39.002;-94.584;2023-01-08T13:33:39;16.30;36.00
62809;DHT22;48848;39.002;-94.584;2023-01-08T13:36:26;16.20;36.60
62809;DHT22;48848;39.002;-94.584;2023-01-08T13:41:39;18.60;34.90
62809;DHT22;48848;39.002;-94.584;2023-01-08T13:44:15;20.90;31.40
62809;DHT22;48848;39.002;-94.584;2023-01-08T13:46:42;21.10;29.30
62809;DHT22;48848;39.002;-94.584;2023-01-08T13:49:14;18.90;30.60
62809;DHT22;48848;39.002;-94.584;2023-01-08T13:51:42;17.80;32.70
62809;DHT22;48848;39.002;-94.584;2023-01-08T13:56:39;16.60;35.30
62809;DHT22;48848;39.002;-94.584;2023-01-08T13:59:05;16.40;36.00
62809;DHT22;48848;39.002;-94.584;2023-01-08T14:01:31;16.20;36.20
62809;DHT22;48848;39.002;-94.584;2023-01-08T14:03:57;16.50;36.70
62809;DHT22;48848;39.002;-94.584;2023-01-08T14:06:24;17.10;36.10
62809;DHT22;48848;39.002;-94.584;2023-01-08T14:11:30;20.60;31.40
62809;DHT22;48848;39.002;-94.584;2023-01-08T14:13:57;19.30;30.10
62809;DHT22;48848;39.002;-94.584;2023-01-08T14:16:23;18.00;32.20
62809;DHT22;48848;39.002;-94.584;2023-01-08T14:18:49;17.20;33.70
62809;DHT22;48848;39.002;-94.584;2023-01-08T14:21:19;16.70;35.10
62809;DHT22;48848;39.002;-94.584;2023-01-08T14:23:46;16.40;35.80
62809;DHT22;48848;39.002;-94.584;2023-01-08T14:26:30;16.20;36.40
62809;DHT22;48848;39.002;-94.584;2023-01-08T14:28:56;16.00;36.80
62809;DHT22;48848;39.002;-94.584;2023-01-08T14:31:23;16.60;36.80
62809;DHT22;48848;39.002;-94.584;2023-01-08T14:33:51;17.60;35.80
62809;DHT22;48848;39.002;-94.584;2023-01-08T14:36:17;20.40;32.40
62809;DHT22;48848;39.002;-94.584;2023-01-08T14:38:44;20.70;29.60
62809;DHT22;48848;39.002;-94.584;2023-01-08T14:41:16;18.70;30.90
62809;DHT22;48848;39.002;-94.584;2023-01-08T14:43:44;17.60;33.10
62809;DHT22;48848;39.002;-94.584;2023-01-08T14:46:14;17.00;34.50
62809;DHT22;48848;39.002;-94.584;2023-01-08T14:48:42;16.60;35.40
62809;DHT22;48848;39.002;-94.584;2023-01-08T14:51:10;16.30;36.10
62809;DHT22;48848;39.002;-94.584;2023-01-08T14:53:40;16.10;36.60
62809;DHT22;48848;39.002;-94.584;2023-01-08T14:56:06;16.20;37.00
62809;DHT22;48848;39.002;-94.584;2023-01-08T14:58:36;17.10;35.70
62809;DHT22;48848;39.002;-94.584;2023-01-08T15:01:07;18.00;34.80
62809;DHT22;48848;39.002;-94.584;2023-01-08T15:03:35;20.10;32.00
62809;DHT22;48848;39.002;-94.584;2023-01-08T15:06:02;19.10;30.50
62809;DHT22;48848;39.002;-94.584;2023-01-08T15:08:38;18.10;32.60
62809;DHT22;48848;39.002;-94.584;2023-01-08T15:13:31;16.80;34.70
62809;DHT22;48848;39.002;-94.584;2023-01-08T15:16:11;16.60;36.00
62809;DHT22;48848;39.002;-94.584;2023-01-08T15:18:42;16.40;36.30
62809;DHT22;48848;39.002;-94.584;2023-01-08T15:21:09;16.30;36.90
62809;DHT22;48848;39.002;-94.584;2023-01-08T15:23:39;16.20;37.20
62809;DHT22;48848;39.002;-94.584;2023-01-08T15:26:09;16.10;37.70
62809;DHT22;48848;39.002;-94.584;2023-01-08T15:28:36;16.10;38.10
62809;DHT22;48848;39.002;-94.584;2023-01-08T15:31:02;16.70;37.50
62809;DHT22;48848;39.002;-94.584;2023-01-08T15:33:27;17.40;35.90
62809;DHT22;48848;39.002;-94.584;2023-01-08T15:35:53;17.90;34.20
62809;DHT22;48848;39.002;-94.584;2023-01-08T15:38:19;17.60;34.00
62809;DHT22;48848;39.002;-94.584;2023-01-08T15:40:46;17.10;34.80
62809;DHT22;48848;39.002;-94.584;2023-01-08T15:43:13;16.80;35.60
62809;DHT22;48848;39.002;-94.584;2023-01-08T15:45:40;16.50;36.40
62809;DHT22;48848;39.002;-94.584;2023-01-08T15:48:06;16.30;36.80
62809;DHT22;48848;39.002;-94.584;2023-01-08T15:50:32;16.20;37.50
62809;DHT22;48848;39.002;-94.584;2023-01-08T15:53:05;16.10;37.80
62809;DHT22;48848;39.002;-94.584;2023-01-08T15:55:32;16.00;38.10
62809;DHT22;48848;39.002;-94.584;2023-01-08T15:57:58;15.90;38.50
62809;DHT22;48848;39.002;-94.584;2023-01-08T16:00:25;15.90;38.40
62809;DHT22;48848;39.002;-94.584;2023-01-08T16:02:51;15.90;38.70
62809;DHT22;48848;39.002;-94.584;2023-01-08T16:05:18;15.80;38.90
62809;DHT22;48848;39.002;-94.584;2023-01-08T16:07:44;16.30;38.00
62809;DHT22;48848;39.002;-94.584;2023-01-08T16:10:13;17.00;37.40
62809;DHT22;48848;39.002;-94.584;2023-01-08T16:12:39;18.70;35.20
62809;DHT22;48848;39.002;-94.584;2023-01-08T16:15:08;18.80;32.60
62809;DHT22;48848;39.002;-94.584;2023-01-08T16:17:34;17.80;33.80
62809;DHT22;48848;39.002;-94.584;2023-01-08T16:20:01;17.10;35.10
62809;DHT22;48848;39.002;-94.584;2023-01-08T16:22:27;16.70;36.30
62809;DHT22;48848;39.002;-94.584;2023-01-08T16:24:53;16.60;37.10
62809;DHT22;48848;39.002;-94.584;2023-01-08T16:27:19;16.30;37.20
62809;DHT22;48848;39.002;-94.584;2023-01-08T16:29:45;16.20;37.60
62809;DHT22;48848;39.002;-94.584;2023-01-08T16:32:10;16.20;37.90
62809;DHT22;48848;39.002;-94.584;2023-01-08T16:34:36;16.20;37.90
62809;DHT22;48848;39.002;-94.584;2023-01-08T16:37:02;16.20;37.70
62809;DHT22;48848;39.002;-94.584;2023-01-08T16:39:28;16.10;38.20
62809;DHT22;48848;39.002;-94.584;2023-01-08T16:41:54;16.20;31.80
62809;DHT22;48848;39.002;-94.584;2023-01-08T16:44:21;15.50;31.30